首页
METAR-TAF:

METAR-TAF

机场 :

東京國際機場

东京国际机场, 日本

纬度: 35-33N, 经度: 139-47E, 海拔: 5米

当前天气观测

该预报发布于37分钟前的01:00 UTC
风速5节,风向北转东北
温度 23°C
湿度 65%
气压 1015 hPa
能见度10公里或以上
少量云层高于4000英尺
多云层高于6000英尺
阴天层高于12000英尺
小雨

METAR: RJTT 200100Z 02005KT 9999 -RA FEW040 BKN060 OVC120 23/16 Q1015 NOSIG RMK 1SC040 5SC060 8AS120 A3000

时间: 10:37 (01:37 UTC)

预报

该预报发布于2小时和32分钟前的23:05 UTC
预报有效从20日的 00点(UTC)到 21日的 06点(UTC)
风速6节,风向东北
能见度10公里或以上
少量云层高于2000英尺
多云层高于5000英尺
短暂存在
从 20日的 06点(UTC)到 20日的 12点(UTC)
能見度: 4000
雨, 轻雾
短暂存在
从 20日的 12点(UTC)到 20日的 21点(UTC)
能見度: 3000
少量云层高于500英尺
多云层高于800英尺
雨, 轻雾
成为
从 20日的 15点(UTC)到 20日的 18点(UTC)
风速16节,风向
短暂存在
从 20日的 21点(UTC)到 21日的 03点(UTC)
能見度: 4000
少量云层高于500英尺
多云层高于800英尺
小雨, 轻雾

TAF: RJTT 192305Z 2000/2106 04006KT 9999 FEW020 BKN050 TEMPO 2006/2012 4000 RA BR TEMPO 2012/2021 3000 RA BR FEW005 BKN008 BECMG 2015/2018 36016KT TEMPO 2021/2103 4000 -RA BR FEW005 BKN008

超过4000个机场的气象观测和天气预报(METAR&TAF报告)。

可查询的气象台以黄色和红色小点在地图上表示。

将鼠标移到小点上方,可查看气象台名称。

然后点击查看天气观测和预报。

如需切换地图:点击带黑十字的绿色按钮放大地图;点击带横线的绿色按钮缩小地图;或者点击绿色箭头查看邻近地区的地图。


METAR-TAF: